Time;durP1;ratioP1;P1;durP2;ratioP2;P2;SDS_P1;SDS_P2;PMS_P1;PMS_P2;Temp;Humidity;BMP_temperature;BMP_pressure;BME280_temperature;BME280_humidity;BME280_pressure;Samples;Min_cycle;Max_cycle;Signal;HPM_P1;HPM_P2
2023/05/23 00:01:01;;;;;;;45.47;32.63;;;;;;;;;;5031728;28;20030;-70
2023/05/23 00:03:30;;;;;;;52.75;36.17;;;;;;;;;;5030910;28;20359;-69
2023/05/23 00:06:01;;;;;;;153.52;101.15;;;;;;;;;;5031167;28;20083;-70
2023/05/23 00:08:27;;;;;;;117.97;82.38;;;;;;;;;;5031412;28;20385;-69
2023/05/23 00:10:54;;;;;;;101.25;72.55;;;;;;;;;;5030870;28;20083;-71
2023/05/23 00:13:21;;;;;;;56.80;38.03;;;;;;;;;;5030793;28;20029;-71
2023/05/23 00:15:48;;;;;;;52.53;38.50;;;;;;;;;;5020953;28;20038;-69
2023/05/23 00:18:15;;;;;;;55.28;38.53;;;;;;;;;;5021222;28;20014;-70
2023/05/23 00:20:42;;;;;;;54.35;39.33;;;;;;;;;;5019558;28;20029;-70
2023/05/23 00:23:09;;;;;;;70.35;46.05;;;;;;;;;;5020809;28;20017;-69
2023/05/23 00:25:36;;;;;;;72.43;45.47;;;;;;;;;;5021348;28;20109;-68
2023/05/23 00:28:04;;;;;;;67.25;46.80;;;;;;;;;;5017109;28;20033;-73
2023/05/23 00:30:31;;;;;;;61.47;45.03;;;;;;;;;;5020530;28;20033;-68
2023/05/23 00:32:59;;;;;;;69.28;44.88;;;;;;;;;;5024387;28;20102;-69
2023/05/23 00:35:25;;;;;;;66.07;44.10;;;;;;;;;;5030637;28;20133;-70
2023/05/23 00:37:53;;;;;;;68.28;43.50;;;;;;;;;;5030627;28;20044;-68
2023/05/23 00:40:19;;;;;;;73.90;54.38;;;;;;;;;;5030132;28;20041;-70
2023/05/23 00:42:47;;;;;;;62.45;46.78;;;;;;;;;;5030205;28;20021;-69
2023/05/23 00:45:14;;;;;;;68.75;44.97;;;;;;;;;;5030669;28;20472;-71
2023/05/23 00:47:41;;;;;;;69.10;46.42;;;;;;;;;;5030473;28;20025;-70
2023/05/23 00:50:10;;;;;;;67.38;45.40;;;;;;;;;;5030640;28;20048;-72
2023/05/23 00:52:37;;;;;;;63.70;42.58;;;;;;;;;;5098435;28;20410;-72
2023/05/23 00:55:04;;;;;;;59.58;40.10;;;;;;;;;;5030404;28;20061;-71
2023/05/23 00:57:33;;;;;;;59.35;40.85;;;;;;;;;;5030572;28;20354;-73
2023/05/23 01:00:02;;;;;;;65.90;41.88;;;;;;;;;;5030372;28;20022;-69
2023/05/23 01:02:31;;;;;;;72.53;50.67;;;;;;;;;;5030388;28;20026;-71
2023/05/23 01:05:01;;;;;;;65.25;45.03;;;;;;;;;;5029832;28;20025;-70
2023/05/23 01:07:27;;;;;;;64.38;43.47;;;;;;;;;;5030193;28;20017;-70
2023/05/23 01:09:54;;;;;;;55.72;41.47;;;;;;;;;;5030648;28;20022;-70
2023/05/23 01:12:21;;;;;;;74.72;48.28;;;;;;;;;;5030332;28;20028;-70
2023/05/23 01:14:51;;;;;;;87.47;56.80;;;;;;;;;;5030198;28;20021;-71
2023/05/23 01:17:24;;;;;;;72.95;48.05;;;;;;;;;;5030321;28;20029;-71
2023/05/23 01:20:11;;;;;;;75.05;46.67;;;;;;;;;;5029988;28;20029;-71
2023/05/23 01:22:41;;;;;;;72.32;52.47;;;;;;;;;;5028820;28;20524;-70
2023/05/23 01:25:07;;;;;;;83.30;51.20;;;;;;;;;;5023587;28;20082;-73
2023/05/23 01:27:37;;;;;;;79.95;54.38;;;;;;;;;;5030011;28;20382;-70
2023/05/23 01:30:04;;;;;;;120.63;90.28;;;;;;;;;;5030105;28;20024;-71
2023/05/23 01:32:32;;;;;;;66.30;48.55;;;;;;;;;;5016912;28;20037;-72
2023/05/23 01:34:59;;;;;;;98.95;66.15;;;;;;;;;;5029268;28;20026;-71
2023/05/23 01:37:28;;;;;;;72.97;48.47;;;;;;;;;;5030437;28;20042;-72
2023/05/23 01:39:55;;;;;;;68.53;49.53;;;;;;;;;;5030086;28;20020;-72
2023/05/23 01:42:22;;;;;;;90.63;59.22;;;;;;;;;;5029654;28;20026;-69
2023/05/23 01:44:48;;;;;;;106.15;71.68;;;;;;;;;;5029963;28;20146;-71
2023/05/23 01:47:15;;;;;;;66.05;48.03;;;;;;;;;;5029909;28;20022;-70
2023/05/23 01:49:43;;;;;;;56.72;42.45;;;;;;;;;;5029949;28;20373;-70
2023/05/23 01:52:10;;;;;;;75.63;49.30;;;;;;;;;;5029847;28;20090;-70
2023/05/23 01:54:41;;;;;;;68.70;49.08;;;;;;;;;;5032203;28;20484;-68
2023/05/23 01:57:08;;;;;;;67.72;47.85;;;;;;;;;;5033177;28;20037;-69
2023/05/23 01:59:34;;;;;;;65.55;44.60;;;;;;;;;;5033207;27;20381;-66
2023/05/23 02:02:01;;;;;;;67.05;43.70;;;;;;;;;;5033236;28;20104;-68
2023/05/23 02:04:28;;;;;;;98.95;69.90;;;;;;;;;;5033409;28;20053;-68
2023/05/23 02:06:54;;;;;;;84.72;61.20;;;;;;;;;;5033247;28;20021;-69
2023/05/23 02:09:21;;;;;;;56.78;42.28;;;;;;;;;;5033271;28;20025;-69
2023/05/23 02:11:48;;;;;;;76.40;52.25;;;;;;;;;;5032900;28;20029;-69
2023/05/23 02:14:14;;;;;;;66.38;44.55;;;;;;;;;;5033080;28;20036;-69
2023/05/23 02:16:41;;;;;;;69.57;44.50;;;;;;;;;;5032820;28;20029;-68
2023/05/23 02:19:07;;;;;;;62.03;42.88;;;;;;;;;;5032791;28;20021;-68
2023/05/23 02:21:34;;;;;;;77.40;49.65;;;;;;;;;;5033235;28;20060;-68
2023/05/23 02:24:01;;;;;;;65.55;43.50;;;;;;;;;;5033263;28;20018;-68
2023/05/23 02:26:27;;;;;;;61.92;41.88;;;;;;;;;;5033333;28;20029;-68
2023/05/23 02:28:54;;;;;;;60.58;41.17;;;;;;;;;;5033329;28;20029;-68
2023/05/23 02:31:21;;;;;;;62.60;41.72;;;;;;;;;;5033477;28;20030;-68
2023/05/23 02:33:47;;;;;;;59.90;41.45;;;;;;;;;;5033045;28;20032;-66
2023/05/23 02:36:14;;;;;;;62.35;41.50;;;;;;;;;;5032898;28;20504;-67
2023/05/23 02:38:40;;;;;;;61.10;41.03;;;;;;;;;;5033778;28;20166;-67
2023/05/23 02:41:08;;;;;;;69.30;41.95;;;;;;;;;;5033757;28;20025;-67
2023/05/23 02:43:34;;;;;;;62.45;42.03;;;;;;;;;;5033348;28;20025;-67
2023/05/23 02:46:01;;;;;;;87.05;57.95;;;;;;;;;;5033260;28;20049;-67
2023/05/23 02:48:27;;;;;;;61.28;44.20;;;;;;;;;;5033326;28;20386;-67
2023/05/23 02:50:54;;;;;;;84.65;55.28;;;;;;;;;;5033059;28;20032;-67
2023/05/23 02:53:21;;;;;;;65.93;45.22;;;;;;;;;;5032771;28;20538;-67
2023/05/23 02:55:48;;;;;;;63.58;42.92;;;;;;;;;;5032997;28;20504;-67
2023/05/23 02:58:15;;;;;;;63.67;43.15;;;;;;;;;;5032794;28;20109;-67
2023/05/23 03:00:42;;;;;;;58.40;42.58;;;;;;;;;;5032905;28;20021;-67
2023/05/23 03:03:10;;;;;;;59.40;39.85;;;;;;;;;;5033007;28;20048;-67
2023/05/23 03:05:37;;;;;;;57.58;40.72;;;;;;;;;;5032183;28;20025;-67
2023/05/23 03:08:04;;;;;;;50.30;37.70;;;;;;;;;;5032965;28;20423;-68
2023/05/23 03:10:30;;;;;;;55.15;39.70;;;;;;;;;;5032503;28;20077;-68
2023/05/23 03:12:57;;;;;;;61.20;40.15;;;;;;;;;;5032555;28;20028;-68
2023/05/23 03:15:24;;;;;;;52.67;39.38;;;;;;;;;;5032972;28;20060;-68
2023/05/23 03:17:50;;;;;;;53.05;39.00;;;;;;;;;;5032323;28;20053;-68
2023/05/23 03:20:17;;;;;;;69.97;45.28;;;;;;;;;;5031820;28;20104;-71
2023/05/23 03:22:44;;;;;;;60.67;41.15;;;;;;;;;;5031940;28;20028;-70
2023/05/23 03:25:11;;;;;;;58.92;38.47;;;;;;;;;;5031939;28;20041;-70
2023/05/23 03:27:37;;;;;;;54.85;39.65;;;;;;;;;;5031710;28;20021;-67
2023/05/23 03:30:04;;;;;;;51.60;37.17;;;;;;;;;;5031800;28;20061;-70
2023/05/23 03:32:31;;;;;;;52.67;37.97;;;;;;;;;;5031535;28;20478;-67
2023/05/23 03:34:58;;;;;;;46.50;35.22;;;;;;;;;;5031501;28;20029;-68
2023/05/23 03:37:24;;;;;;;52.17;36.47;;;;;;;;;;5031620;28;20072;-68
2023/05/23 03:39:51;;;;;;;55.45;38.38;;;;;;;;;;5031513;28;20055;-69
2023/05/23 03:42:18;;;;;;;52.38;37.22;;;;;;;;;;5031435;28;20100;-68
2023/05/23 03:44:44;;;;;;;52.63;35.05;;;;;;;;;;5031667;28;20066;-67
2023/05/23 03:47:11;;;;;;;41.03;31.90;;;;;;;;;;5031556;28;20052;-68
2023/05/23 03:49:37;;;;;;;44.22;32.90;;;;;;;;;;5031311;28;20040;-68
2023/05/23 03:52:04;;;;;;;41.03;31.98;;;;;;;;;;5031531;28;20021;-68
2023/05/23 03:54:31;;;;;;;42.63;31.17;;;;;;;;;;5031459;28;20390;-68
2023/05/23 03:56:57;;;;;;;44.10;32.13;;;;;;;;;;5028203;28;20067;-67
2023/05/23 03:59:24;;;;;;;40.20;30.33;;;;;;;;;;5028287;28;20026;-69
2023/05/23 04:01:51;;;;;;;40.70;29.80;;;;;;;;;;5023460;28;20099;-69
2023/05/23 04:04:19;;;;;;;43.40;32.63;;;;;;;;;;5031193;28;20022;-67
2023/05/23 04:06:46;;;;;;;40.05;31.70;;;;;;;;;;5030875;28;20033;-68
2023/05/23 04:09:13;;;;;;;37.10;29.27;;;;;;;;;;5099207;28;20443;-68
2023/05/23 04:11:41;;;;;;;39.28;28.98;;;;;;;;;;5031238;28;20547;-67
2023/05/23 04:14:07;;;;;;;35.88;24.58;;;;;;;;;;5031237;28;20357;-68
2023/05/23 04:16:34;;;;;;;38.70;26.65;;;;;;;;;;5030064;28;20040;-68
2023/05/23 04:19:03;;;;;;;35.90;26.77;;;;;;;;;;5030926;28;20028;-68
2023/05/23 04:21:30;;;;;;;33.35;25.95;;;;;;;;;;5031042;28;20383;-69
2023/05/23 04:23:56;;;;;;;42.72;26.80;;;;;;;;;;5031059;28;20049;-68
2023/05/23 04:26:23;;;;;;;33.30;25.70;;;;;;;;;;5030947;28;20017;-70
2023/05/23 04:28:53;;;;;;;35.33;27.42;;;;;;;;;;5031087;28;20030;-68
2023/05/23 04:31:21;;;;;;;42.67;28.50;;;;;;;;;;5030888;28;20025;-68
2023/05/23 04:33:49;;;;;;;42.05;28.20;;;;;;;;;;5030647;28;20386;-68
2023/05/23 04:36:17;;;;;;;37.47;29.63;;;;;;;;;;5030799;28;20029;-68
2023/05/23 04:38:43;;;;;;;45.92;35.80;;;;;;;;;;5030716;28;20022;-68
2023/05/23 04:41:10;;;;;;;40.63;32.50;;;;;;;;;;5030559;28;20024;-68
2023/05/23 04:43:41;;;;;;;44.80;28.35;;;;;;;;;;5030917;28;20092;-68
2023/05/23 04:46:14;;;;;;;34.92;25.85;;;;;;;;;;5024809;28;20120;-68
2023/05/23 04:48:41;;;;;;;28.52;23.08;;;;;;;;;;5022740;28;20032;-69
2023/05/23 04:51:08;;;;;;;30.67;25.10;;;;;;;;;;5030629;28;20116;-68
2023/05/23 04:53:35;;;;;;;30.98;22.58;;;;;;;;;;5030513;28;20498;-69
2023/05/23 04:56:02;;;;;;;30.13;22.42;;;;;;;;;;5030401;28;20029;-68
2023/05/23 04:58:30;;;;;;;52.70;36.47;;;;;;;;;;5030514;28;20533;-69
2023/05/23 05:00:57;;;;;;;44.03;29.88;;;;;;;;;;5030553;28;20492;-69
2023/05/23 05:03:25;;;;;;;30.65;23.83;;;;;;;;;;5030279;28;20029;-68
2023/05/23 05:05:52;;;;;;;31.63;23.35;;;;;;;;;;5030382;28;20034;-69
2023/05/23 05:08:19;;;;;;;36.35;24.17;;;;;;;;;;5030381;28;20021;-69
2023/05/23 05:10:45;;;;;;;32.65;25.08;;;;;;;;;;5026756;28;20490;-67
2023/05/23 05:13:12;;;;;;;36.05;26.52;;;;;;;;;;5018125;28;20018;-68
2023/05/23 05:15:39;;;;;;;29.98;22.25;;;;;;;;;;5019954;28;20116;-68
2023/05/23 05:18:05;;;;;;;32.95;24.23;;;;;;;;;;5019499;28;20029;-68
2023/05/23 05:20:32;;;;;;;36.72;24.83;;;;;;;;;;5018006;28;20033;-66
2023/05/23 05:22:58;;;;;;;31.65;24.38;;;;;;;;;;5019532;28;20500;-67
2023/05/23 05:25:26;;;;;;;32.65;24.98;;;;;;;;;;5020128;28;20164;-68
2023/05/23 05:27:52;;;;;;;34.00;24.83;;;;;;;;;;5022261;28;20559;-68
2023/05/23 05:30:19;;;;;;;36.13;25.58;;;;;;;;;;5024890;28;20067;-68
2023/05/23 05:32:46;;;;;;;38.15;25.45;;;;;;;;;;5020750;28;20051;-68
2023/05/23 05:35:13;;;;;;;36.53;26.67;;;;;;;;;;5018280;28;20434;-68
2023/05/23 05:37:39;;;;;;;35.78;25.38;;;;;;;;;;5018188;28;20041;-68
2023/05/23 05:40:07;;;;;;;30.42;26.00;;;;;;;;;;5018331;28;20038;-68
2023/05/23 05:42:34;;;;;;;33.35;26.60;;;;;;;;;;5022105;28;20046;-67
2023/05/23 05:45:00;;;;;;;33.03;25.58;;;;;;;;;;5025501;28;20377;-66
2023/05/23 05:47:27;;;;;;;104.55;73.40;;;;;;;;;;5024514;28;20010;-67
2023/05/23 05:49:54;;;;;;;42.83;30.48;;;;;;;;;;5020671;28;20055;-67
2023/05/23 05:52:20;;;;;;;33.83;24.02;;;;;;;;;;5018780;28;20478;-66
2023/05/23 05:54:47;;;;;;;31.45;24.23;;;;;;;;;;5019234;28;20109;-65
2023/05/23 05:57:14;;;;;;;35.78;24.65;;;;;;;;;;5019155;28;20108;-66
2023/05/23 05:59:40;;;;;;;36.00;25.75;;;;;;;;;;5020484;28;20434;-67
2023/05/23 06:02:07;;;;;;;35.22;26.40;;;;;;;;;;5024754;28;20522;-67
2023/05/23 06:04:34;;;;;;;30.88;24.40;;;;;;;;;;5027101;28;20029;-67
2023/05/23 06:07:01;;;;;;;38.83;24.88;;;;;;;;;;5024652;28;20040;-68
2023/05/23 06:09:27;;;;;;;34.72;24.45;;;;;;;;;;5021213;28;20466;-67
2023/05/23 06:11:54;;;;;;;68.93;49.60;;;;;;;;;;5023118;28;20032;-67
2023/05/23 06:14:21;;;;;;;31.58;22.92;;;;;;;;;;5022042;28;20022;-67
2023/05/23 06:16:47;;;;;;;29.23;23.38;;;;;;;;;;5021191;28;20033;-69
2023/05/23 06:19:14;;;;;;;30.52;23.42;;;;;;;;;;5022739;28;20035;-66
2023/05/23 06:21:41;;;;;;;31.77;24.30;;;;;;;;;;5021531;28;20030;-66
2023/05/23 06:24:07;;;;;;;31.55;24.30;;;;;;;;;;5021025;28;20090;-66
2023/05/23 06:26:36;;;;;;;32.65;23.27;;;;;;;;;;5022830;28;20017;-69
2023/05/23 06:29:03;;;;;;;34.40;22.58;;;;;;;;;;5022112;28;20029;-66
2023/05/23 06:31:30;;;;;;;37.90;23.42;;;;;;;;;;5020815;28;20516;-66
2023/05/23 06:33:56;;;;;;;33.53;24.08;;;;;;;;;;5020712;28;20471;-68
2023/05/23 06:36:23;;;;;;;29.50;22.48;;;;;;;;;;5021095;28;20091;-67
2023/05/23 06:38:50;;;;;;;31.90;22.83;;;;;;;;;;5022004;28;20520;-67
2023/05/23 06:41:16;;;;;;;29.48;22.65;;;;;;;;;;5019437;28;20018;-66
2023/05/23 06:43:43;;;;;;;27.70;22.48;;;;;;;;;;5021114;28;20370;-66
2023/05/23 06:46:09;;;;;;;36.60;22.70;;;;;;;;;;5022098;28;20022;-66
2023/05/23 06:48:36;;;;;;;29.13;23.75;;;;;;;;;;5020023;28;20018;-68
2023/05/23 06:51:03;;;;;;;31.23;21.92;;;;;;;;;;5021045;28;20028;-67
2023/05/23 06:53:29;;;;;;;28.60;22.67;;;;;;;;;;5014885;28;20467;-67
2023/05/23 06:55:56;;;;;;;30.50;24.45;;;;;;;;;;5012196;28;20033;-68
2023/05/23 06:58:23;;;;;;;29.30;23.02;;;;;;;;;;5012365;28;20057;-71
2023/05/23 07:00:50;;;;;;;30.13;22.48;;;;;;;;;;5012590;28;20026;-70
2023/05/23 07:03:17;;;;;;;28.92;22.95;;;;;;;;;;5017074;28;20370;-72
2023/05/23 07:05:44;;;;;;;29.55;22.95;;;;;;;;;;5020972;28;20033;-69
2023/05/23 07:08:10;;;;;;;34.22;24.00;;;;;;;;;;5019926;28;20030;-68
2023/05/23 07:10:40;;;;;;;33.15;24.67;;;;;;;;;;5019719;28;20018;-68
2023/05/23 07:13:06;;;;;;;31.27;22.42;;;;;;;;;;5020256;28;20021;-71
2023/05/23 07:15:33;;;;;;;34.70;23.95;;;;;;;;;;5021514;28;20112;-66
2023/05/23 07:18:00;;;;;;;32.35;23.42;;;;;;;;;;5021831;28;20477;-66
2023/05/23 07:20:26;;;;;;;27.42;22.52;;;;;;;;;;5021285;28;20347;-66
2023/05/23 07:22:53;;;;;;;32.35;23.67;;;;;;;;;;5019703;28;20021;-68
2023/05/23 07:25:22;;;;;;;27.50;21.63;;;;;;;;;;5021228;28;20351;-66
2023/05/23 07:27:48;;;;;;;29.40;22.00;;;;;;;;;;5021213;28;20355;-67
2023/05/23 07:30:15;;;;;;;29.83;22.20;;;;;;;;;;5019454;28;20059;-67
2023/05/23 07:32:42;;;;;;;29.92;23.80;;;;;;;;;;5020621;28;20033;-66
2023/05/23 07:35:08;;;;;;;34.30;24.88;;;;;;;;;;5020954;28;20716;-67
2023/05/23 07:37:35;;;;;;;37.97;27.98;;;;;;;;;;5019141;28;20042;-67
2023/05/23 07:40:02;;;;;;;33.72;23.02;;;;;;;;;;5020808;28;20055;-72
2023/05/23 07:42:28;;;;;;;35.13;25.65;;;;;;;;;;5021099;28;20044;-72
2023/05/23 07:44:55;;;;;;;30.15;22.63;;;;;;;;;;5019138;28;20489;-66
2023/05/23 07:47:23;;;;;;;27.88;22.20;;;;;;;;;;5020484;28;20022;-67
2023/05/23 07:49:51;;;;;;;65.68;46.22;;;;;;;;;;5020854;28;20052;-70
2023/05/23 07:52:17;;;;;;;35.72;24.52;;;;;;;;;;5019438;28;20382;-67
2023/05/23 07:54:44;;;;;;;27.92;23.45;;;;;;;;;;5020230;27;20382;-68
2023/05/23 07:57:11;;;;;;;37.95;25.38;;;;;;;;;;5021417;28;20041;-69
2023/05/23 07:59:37;;;;;;;32.95;25.48;;;;;;;;;;5019549;28;20014;-68
2023/05/23 08:02:04;;;;;;;85.05;57.92;;;;;;;;;;5020549;28;20480;-69
2023/05/23 08:04:32;;;;;;;45.20;29.95;;;;;;;;;;5021655;28;20036;-69
2023/05/23 08:07:00;;;;;;;38.55;26.75;;;;;;;;;;5019672;28;20547;-67
2023/05/23 08:09:27;;;;;;;42.83;32.10;;;;;;;;;;5020077;28;20033;-67
2023/05/23 08:11:53;;;;;;;41.72;32.75;;;;;;;;;;5021369;28;20025;-67
2023/05/23 08:14:21;;;;;;;28.65;23.30;;;;;;;;;;5019903;28;20110;-68
2023/05/23 08:16:48;;;;;;;32.95;25.27;;;;;;;;;;5019619;28;20513;-67
2023/05/23 08:19:15;;;;;;;33.30;23.45;;;;;;;;;;5021217;28;20033;-69
2023/05/23 08:21:42;;;;;;;34.92;25.25;;;;;;;;;;5020173;28;20054;-68
2023/05/23 08:24:08;;;;;;;31.75;25.27;;;;;;;;;;5019568;28;20025;-68
2023/05/23 08:26:36;;;;;;;37.05;25.65;;;;;;;;;;5021324;28;20090;-68
2023/05/23 08:29:03;;;;;;;36.53;23.55;;;;;;;;;;5020147;28;20030;-71
2023/05/23 08:31:30;;;;;;;31.20;23.58;;;;;;;;;;5019354;28;20474;-68
2023/05/23 08:33:56;;;;;;;29.38;24.15;;;;;;;;;;5018841;28;20032;-66
2023/05/23 08:36:23;;;;;;;33.05;25.48;;;;;;;;;;5015080;28;20436;-66
2023/05/23 08:38:51;;;;;;;31.17;23.33;;;;;;;;;;5010963;28;20501;-66
2023/05/23 08:41:20;;;;;;;30.85;23.15;;;;;;;;;;5010975;28;20101;-67
2023/05/23 08:43:46;;;;;;;38.85;27.58;;;;;;;;;;5010933;28;20025;-68
2023/05/23 08:46:14;;;;;;;49.13;33.97;;;;;;;;;;5010870;28;20018;-67
2023/05/23 08:48:42;;;;;;;35.13;26.20;;;;;;;;;;5010703;28;20502;-67
2023/05/23 08:51:12;;;;;;;40.03;26.33;;;;;;;;;;5010999;28;20034;-67
2023/05/23 08:53:45;;;;;;;31.73;24.33;;;;;;;;;;5010808;28;20033;-66
2023/05/23 08:56:25;;;;;;;38.28;23.88;;;;;;;;;;5010667;28;20038;-66
2023/05/23 08:58:52;;;;;;;38.22;26.27;;;;;;;;;;5010762;28;20491;-67
2023/05/23 09:01:20;;;;;;;34.00;25.98;;;;;;;;;;5010759;28;20151;-66
2023/05/23 09:03:49;;;;;;;36.05;25.00;;;;;;;;;;5010218;28;20018;-67
2023/05/23 09:06:17;;;;;;;34.08;26.60;;;;;;;;;;5010819;28;20112;-67
2023/05/23 09:08:45;;;;;;;35.75;28.77;;;;;;;;;;5010760;28;20033;-65
2023/05/23 09:11:12;;;;;;;34.33;27.70;;;;;;;;;;5019094;28;20026;-65
2023/05/23 09:13:39;;;;;;;31.83;25.42;;;;;;;;;;5013095;28;20395;-67
2023/05/23 09:16:07;;;;;;;36.78;26.67;;;;;;;;;;5010487;28;20096;-67
2023/05/23 09:18:36;;;;;;;32.45;25.38;;;;;;;;;;5010684;28;20014;-68
2023/05/23 09:21:03;;;;;;;33.05;25.15;;;;;;;;;;5010826;28;20022;-69
2023/05/23 09:23:32;;;;;;;39.90;26.23;;;;;;;;;;5010327;28;20355;-68
2023/05/23 09:26:01;;;;;;;34.38;26.98;;;;;;;;;;5010613;28;20021;-68
2023/05/23 09:28:28;;;;;;;36.25;27.58;;;;;;;;;;5010922;28;20386;-68
2023/05/23 09:30:58;;;;;;;33.13;26.65;;;;;;;;;;5010596;28;20048;-70
2023/05/23 09:33:28;;;;;;;41.42;30.23;;;;;;;;;;5014770;28;20042;-66
2023/05/23 09:35:55;;;;;;;34.83;26.05;;;;;;;;;;5022048;28;20080;-65
2023/05/23 09:38:22;;;;;;;35.58;28.20;;;;;;;;;;5020203;28;20041;-67
2023/05/23 09:40:48;;;;;;;40.33;27.85;;;;;;;;;;5018808;28;20386;-66
2023/05/23 09:43:17;;;;;;;43.33;29.63;;;;;;;;;;5018423;28;20432;-67
2023/05/23 09:45:44;;;;;;;45.13;35.00;;;;;;;;;;5014770;28;20163;-67
2023/05/23 09:48:14;;;;;;;70.50;51.17;;;;;;;;;;5018084;28;20038;-68
2023/05/23 09:50:41;;;;;;;52.63;32.67;;;;;;;;;;5018401;28;20060;-67
2023/05/23 09:53:07;;;;;;;36.10;28.80;;;;;;;;;;5014789;28;20033;-68
2023/05/23 09:55:34;;;;;;;39.45;30.23;;;;;;;;;;5021771;28;20047;-69
2023/05/23 09:58:01;;;;;;;45.08;33.83;;;;;;;;;;5029465;28;20571;-68
2023/05/23 10:00:27;;;;;;;53.00;40.22;;;;;;;;;;5029785;28;20024;-69
2023/05/23 10:02:54;;;;;;;44.85;32.38;;;;;;;;;;5029761;28;20079;-68
2023/05/23 10:05:41;;;;;;;51.75;34.10;;;;;;;;;;5029569;28;20049;-68
2023/05/23 10:08:09;;;;;;;38.47;28.45;;;;;;;;;;5031097;28;20390;-69
2023/05/23 10:10:54;;;;;;;42.03;32.17;;;;;;;;;;5029661;28;20056;-69
2023/05/23 10:13:21;;;;;;;37.45;29.27;;;;;;;;;;5029612;28;20104;-69
2023/05/23 10:15:49;;;;;;;37.50;28.75;;;;;;;;;;5031801;28;20033;-69
2023/05/23 10:18:21;;;;;;;45.20;31.48;;;;;;;;;;5032916;28;20537;-69
2023/05/23 10:20:49;;;;;;;43.28;32.53;;;;;;;;;;5032832;28;20021;-68
2023/05/23 10:23:16;;;;;;;43.00;29.58;;;;;;;;;;5030075;28;20056;-68
2023/05/23 10:25:44;;;;;;;46.92;30.95;;;;;;;;;;5028507;28;20471;-69
2023/05/23 10:28:11;;;;;;;44.08;31.92;;;;;;;;;;5013147;28;20025;-69
2023/05/23 10:30:38;;;;;;;56.67;38.30;;;;;;;;;;5022170;28;20386;-71
2023/05/23 10:33:05;;;;;;;58.88;42.45;;;;;;;;;;5032781;28;20040;-72
2023/05/23 10:35:32;;;;;;;57.60;39.58;;;;;;;;;;5032803;28;20052;-71
2023/05/23 10:38:01;;;;;;;63.95;44.33;;;;;;;;;;5032241;28;20044;-70
2023/05/23 10:40:28;;;;;;;83.63;59.65;;;;;;;;;;5026798;28;20022;-69
2023/05/23 10:43:14;;;;;;;74.28;46.42;;;;;;;;;;5012850;28;20022;-70
2023/05/23 10:45:42;;;;;;;67.38;45.95;;;;;;;;;;4981575;28;20038;-70
2023/05/23 10:48:11;;;;;;;67.07;43.80;;;;;;;;;;5012882;28;20133;-71
2023/05/23 10:50:39;;;;;;;65.63;44.10;;;;;;;;;;5012534;28;20054;-72
2023/05/23 10:53:06;;;;;;;57.33;41.03;;;;;;;;;;5012792;28;20053;-72
2023/05/23 10:55:36;;;;;;;71.78;48.88;;;;;;;;;;5012672;28;20030;-70
2023/05/23 10:58:05;;;;;;;82.68;52.42;;;;;;;;;;5012533;28;20101;-70
2023/05/23 11:00:32;;;;;;;131.63;85.60;;;;;;;;;;5013042;28;20118;-71
2023/05/23 11:03:00;;;;;;;142.27;95.28;;;;;;;;;;5013138;28;20405;-71
2023/05/23 11:05:27;;;;;;;109.15;74.18;;;;;;;;;;5012628;28;20030;-72
2023/05/23 11:07:58;;;;;;;142.10;93.22;;;32.70;99.90;;;;;;5020433;28;20036;-73
2023/05/23 11:10:25;;;;;;;101.78;65.72;;;32.80;99.90;;;;;;5032202;28;20087;-74
2023/05/23 11:13:09;;;;;;;85.78;54.45;;;32.80;99.90;;;;;;5015212;28;20580;-75
2023/05/23 11:15:41;;;;;;;75.55;49.03;;;32.70;99.90;;;;;;5012548;28;20033;-74
2023/05/23 11:18:07;;;;;;;;;;;32.70;99.90;;;;;;5012665;28;20097;-75
2023/05/23 11:20:37;;;;;;;64.95;43.90;;;32.70;99.90;;;;;;5024600;28;19907;-74
2023/05/23 11:23:07;;;;;;;68.50;48.40;;;32.70;99.90;;;;;;5032005;28;20025;-74
2023/05/23 11:25:50;;;;;;;95.82;57.72;;;32.60;99.90;;;;;;5031983;28;20032;-73
2023/05/23 11:28:17;;;;;;;95.68;66.18;;;32.60;99.90;;;;;;5032018;28;20033;-73
2023/05/23 11:30:48;;;;;;;132.57;89.15;;;32.60;99.90;;;;;;5031685;28;20481;-75
2023/05/23 11:33:17;;;;;;;207.85;132.25;;;32.60;99.90;;;;;;5012044;28;20030;-76
2023/05/23 11:35:46;;;;;;;187.23;116.38;;;32.50;99.90;;;;;;5011997;28;20021;-73
2023/05/23 11:38:16;;;;;;;126.35;84.35;;;32.50;99.90;;;;;;5027624;28;20155;-75
2023/05/23 11:40:45;;;;;;;101.72;67.20;;;32.50;99.90;;;;;;5031452;28;20014;-74
2023/05/23 11:43:14;;;;;;;112.45;83.25;;;32.50;99.90;;;;;;5025573;28;20032;-73
2023/05/23 11:45:41;;;;;;;106.85;78.13;;;32.50;99.90;;;;;;5023468;28;20026;-76
2023/05/23 11:48:10;;;;;;;92.00;62.20;;;32.40;99.90;;;;;;5031787;28;20437;-72
2023/05/23 11:50:42;;;;;;;84.15;57.97;;;32.40;99.90;;;;;;5031364;28;20044;-71
2023/05/23 11:53:08;;;;;;;78.68;55.42;;;32.40;99.90;;;;;;5031890;28;20109;-69
2023/05/23 11:55:35;;;;;;;89.45;55.35;;;32.40;99.90;;;;;;5031940;28;20041;-72
2023/05/23 11:58:01;;;;;;;85.03;58.47;;;32.40;99.90;;;;;;5031428;28;20022;-74
2023/05/23 12:00:32;;;;;;;115.63;74.43;;;32.40;99.90;;;;;;5032086;28;20022;-75
2023/05/23 12:03:05;;;;;;;111.95;76.43;;;32.40;99.90;;;;;;5022574;28;20026;-72
2023/05/23 12:05:32;;;;;;;103.35;66.10;;;32.40;99.90;;;;;;5019798;28;20026;-74
2023/05/23 12:08:00;;;;;;;156.57;110.13;;;32.40;99.90;;;;;;5018642;28;20028;-72
2023/05/23 12:10:28;;;;;;;128.85;90.75;;;32.40;99.90;;;;;;5020648;28;20041;-73
2023/05/23 12:12:55;;;;;;;119.75;80.13;;;32.40;99.90;;;;;;5021204;28;20025;-73
2023/05/23 12:15:28;;;;;;;132.73;83.68;;;32.40;99.90;;;;;;5021523;28;20282;-74
2023/05/23 12:17:55;;;;;;;161.52;102.55;;;32.40;99.90;;;;;;5022376;28;20109;-71
2023/05/23 12:20:23;;;;;;;119.72;79.57;;;32.40;99.90;;;;;;5021105;28;20194;-73
2023/05/23 12:22:53;;;;;;;79.82;55.13;;;32.30;99.90;;;;;;5018579;28;20225;-74
2023/05/23 12:25:22;;;;;;;71.82;49.35;;;32.30;99.90;;;;;;5023959;28;20038;-75
2023/05/23 12:27:48;;;;;;;66.00;48.10;;;32.30;99.90;;;;;;5022795;28;20021;-73
2023/05/23 12:30:16;;;;;;;77.63;48.95;;;32.30;99.90;;;;;;5022244;28;20029;-69
2023/05/23 12:32:44;;;;;;;84.30;59.65;;;32.30;99.90;;;;;;5022693;28;20554;-70
2023/05/23 12:35:13;;;;;;;92.53;60.03;;;32.30;99.90;;;;;;5021037;28;20018;-71
2023/05/23 12:37:44;;;;;;;83.25;55.42;;;32.30;99.90;;;;;;5017692;28;20490;-74
2023/05/23 12:40:14;;;;;;;92.18;61.97;;;;;;;;;;5020470;28;20032;-69
2023/05/23 12:42:43;;;;;;;118.68;71.65;;;;;;;;;;5019109;28;20038;-70
2023/05/23 12:45:13;;;;;;;128.55;74.47;;;;;;;;;;5019480;28;20100;-68
2023/05/23 12:47:39;;;;;;;106.53;65.53;;;32.20;99.90;;;;;;5021850;28;20406;-69
2023/05/23 12:50:06;;;;;;;86.85;57.03;;;32.20;99.90;;;;;;5020290;28;20018;-69
2023/05/23 12:52:35;;;;;;;79.82;54.72;;;32.10;99.90;;;;;;5021180;28;20060;-70
2023/05/23 12:55:02;;;;;;;82.05;54.53;;;32.00;99.90;;;;;;5019431;28;20029;-70
2023/05/23 12:57:33;;;;;;;82.25;52.60;;;31.90;99.90;;;;;;5025083;28;20056;-68
2023/05/23 12:59:59;;;;;;;80.50;54.17;;;31.90;99.90;;;;;;5021300;28;20043;-70
2023/05/23 13:02:27;;;;;;;95.82;61.25;;;31.90;99.90;;;;;;5088364;28;20056;-71
2023/05/23 13:04:54;;;;;;;114.35;68.05;;;31.80;99.90;;;;;;5019650;28;20026;-72
2023/05/23 13:07:21;;;;;;;128.02;80.68;;;31.70;99.90;;;;;;5023070;28;20448;-76
2023/05/23 13:09:48;;;;;;;127.20;78.30;;;31.70;99.90;;;;;;5025237;28;20047;-76
2023/05/23 13:12:14;;;;;;;161.77;89.38;;;31.60;99.90;;;;;;5024177;28;20067;-75
2023/05/23 13:14:41;;;;;;;195.65;103.68;;;31.60;99.90;;;;;;5014277;28;20030;-76
2023/05/23 13:17:08;;;;;;;194.68;108.68;;;31.50;99.90;;;;;;5013911;28;20033;-76
2023/05/23 13:19:35;;;;;;;211.98;116.38;;;31.50;99.90;;;;;;5015177;28;20018;-75
2023/05/23 13:22:03;;;;;;;207.05;113.95;;;31.40;99.90;;;;;;5052887;23;20046;-75
2023/05/23 13:24:30;;;;;;;195.88;111.40;;;31.40;99.90;;;;;;5019816;28;20050;-76
2023/05/23 13:26:56;;;;;;;199.65;110.85;;;31.30;99.90;;;;;;5016592;28;20029;-75
2023/05/23 13:29:23;;;;;;;178.20;102.70;;;31.30;99.90;;;;;;5011339;28;20022;-76
2023/05/23 13:31:49;;;;;;;182.90;105.80;;;31.30;99.90;;;;;;5010872;28;20018;-78
2023/05/23 13:34:16;;;;;;;171.65;102.30;;;31.20;99.90;;;;;;5011087;28;20474;-76
2023/05/23 13:36:42;;;;;;;195.30;113.63;;;31.20;99.90;;;;;;5011076;28;20100;-78
2023/05/23 13:39:09;;;;;;;174.45;105.82;;;31.20;99.90;;;;;;5005460;28;20026;-84
2023/05/23 13:41:36;;;;;;;163.77;98.28;;;31.10;99.90;;;;;;4991744;28;20023;-79
2023/05/23 13:44:02;;;;;;;139.52;90.10;;;31.10;99.90;;;;;;5001664;28;20493;-80
2023/05/23 13:46:29;;;;;;;144.68;85.95;;;31.10;99.90;;;;;;5001602;28;20026;-71
2023/05/23 13:48:56;;;;;;;125.90;79.03;;;31.10;99.90;;;;;;5011062;28;20025;-74
2023/05/23 13:51:22;;;;;;;117.13;72.40;;;31.10;99.90;;;;;;5015133;28;20054;-74
2023/05/23 13:53:48;;;;;;;115.88;71.53;;;31.00;99.90;;;;;;4996282;28;20022;-73